Time;durP1;ratioP1;P1;durP2;ratioP2;P2;SDS_P1;SDS_P2;PMS_P1;PMS_P2;Temp;Humidity;BMP_temperature;BMP_pressure;BME280_temperature;BME280_humidity;BME280_pressure;Samples;Min_cycle;Max_cycle;Signal;HPM_P1;HPM_P2
2022/05/14 00:01:27;;;;;;;16.98;6.15;;;13.00;99.90;;;;;;5050961;28;20053;-72
2022/05/14 00:03:53;;;;;;;11.77;5.20;;;13.00;99.90;;;;;;5052115;28;20043;-72
2022/05/14 00:06:23;;;;;;;15.38;5.22;;;13.00;99.90;;;;;;5051258;28;20044;-72
2022/05/14 00:08:49;;;;;;;15.57;5.10;;;13.00;99.90;;;;;;5052404;28;20486;-71
2022/05/14 00:14:03;;;;;;;16.70;5.78;;;12.90;99.90;;;;;;5051224;28;20127;-73
2022/05/14 00:16:31;;;;;;;13.50;5.20;;;12.90;99.90;;;;;;5052360;28;20120;-72
2022/05/14 00:18:57;;;;;;;11.80;5.15;;;12.90;99.90;;;;;;5052088;28;20033;-72
2022/05/14 00:21:23;;;;;;;15.10;6.13;;;12.90;99.90;;;;;;5052081;28;20089;-72
2022/05/14 00:23:49;;;;;;;15.45;5.10;;;12.90;99.90;;;;;;5050563;28;20037;-72
2022/05/14 00:26:16;;;;;;;14.63;5.55;;;12.80;99.90;;;;;;5052165;28;20557;-73
2022/05/14 00:28:42;;;;;;;15.85;5.82;;;12.80;99.90;;;;;;5052063;28;20041;-73
2022/05/14 00:31:09;;;;;;;21.77;8.10;;;12.80;99.90;;;;;;5050509;28;20460;-72
2022/05/14 00:33:35;;;;;;;12.20;5.82;;;12.80;99.90;;;;;;5050858;28;20560;-72
2022/05/14 00:36:01;;;;;;;9.98;4.78;;;12.80;99.90;;;;;;5052291;28;20033;-72
2022/05/14 00:38:26;;;;;;;12.50;5.97;;;12.70;99.90;;;;;;5050947;28;20033;-72
2022/05/14 00:41:01;;;;;;;15.48;6.28;;;12.70;99.90;;;;;;5051860;28;20118;-73
2022/05/14 00:43:28;;;;;;;17.58;6.53;;;12.80;99.90;;;;;;5052108;28;20033;-73
2022/05/14 00:46:14;;;;;;;16.80;5.85;;;12.80;99.90;;;;;;5051955;28;20040;-72
2022/05/14 00:48:42;;;;;;;14.35;5.43;;;12.70;99.90;;;;;;5050587;28;20075;-73
2022/05/14 00:51:13;;;;;;;17.83;6.32;;;12.70;99.90;;;;;;5034090;28;20049;-72
2022/05/14 00:53:44;;;;;;;14.95;6.55;;;12.70;99.90;;;;;;5051727;28;20037;-72
2022/05/14 00:56:15;;;;;;;20.08;6.97;;;12.70;99.90;;;;;;5051717;28;20548;-71
2022/05/14 00:59:07;;;;;;;20.30;7.05;;;12.70;99.90;;;;;;5050771;28;20406;-72
2022/05/14 01:01:34;;;;;;;17.27;6.57;;;12.70;99.90;;;;;;5051660;28;20045;-73
2022/05/14 01:03:59;;;;;;;17.10;7.50;;;12.60;99.90;;;;;;5051732;28;20120;-72
2022/05/14 01:06:28;;;;;;;19.23;6.47;;;12.60;99.90;;;;;;5050442;28;20167;-72
2022/05/14 01:08:53;;;;;;;18.30;7.47;;;12.60;99.90;;;;;;5051555;28;20556;-72
2022/05/14 01:11:19;;;;;;;17.83;6.70;;;12.50;99.90;;;;;;5051570;28;20041;-72
2022/05/14 01:13:45;;;;;;;20.27;7.45;;;12.60;99.90;;;;;;5033573;28;20053;-73
2022/05/14 01:16:11;;;;;;;17.45;7.22;;;12.60;99.90;;;;;;5050246;28;20033;-72
2022/05/14 01:18:37;;;;;;;27.08;7.82;;;12.60;99.90;;;;;;5050195;28;20045;-73
2022/05/14 01:21:20;;;;;;;18.23;6.97;;;12.60;99.90;;;;;;5050232;28;20044;-72
2022/05/14 01:26:59;;;;;;;18.58;7.95;;;12.60;99.90;;;;;;5051603;28;20076;-72
2022/05/14 01:29:25;;;;;;;23.23;7.80;;;12.60;99.90;;;;;;5050023;28;20494;-73
2022/05/14 01:31:52;;;;;;;18.45;7.78;;;12.60;99.90;;;;;;5049862;28;20047;-73
2022/05/14 01:34:25;;;;;;;18.58;7.60;;;12.60;99.90;;;;;;5051803;28;20065;-73
2022/05/14 01:36:52;;;;;;;21.02;7.00;;;12.60;99.90;;;;;;5054226;28;20044;-72
2022/05/14 01:39:18;;;;;;;19.35;7.93;;;12.60;99.90;;;;;;5055349;28;20037;-72
2022/05/14 01:41:44;;;;;;;23.35;8.18;;;12.60;99.90;;;;;;5055132;28;20375;-72
2022/05/14 01:44:10;;;;;;;25.15;8.07;;;12.60;99.90;;;;;;5054293;28;20044;-72
2022/05/14 01:46:36;;;;;;;19.02;8.18;;;12.50;99.90;;;;;;5055364;28;20075;-73
2022/05/14 01:49:02;;;;;;;22.33;8.45;;;12.50;99.90;;;;;;5055134;28;20075;-73
2022/05/14 01:51:29;;;;;;;17.50;7.70;;;12.50;99.90;;;;;;5054727;28;20037;-72
2022/05/14 01:53:55;;;;;;;24.10;8.30;;;12.50;99.90;;;;;;5055215;28;20041;-71
2022/05/14 01:56:20;;;;;;;20.58;8.18;;;12.50;99.90;;;;;;5055036;28;20402;-71
2022/05/14 01:58:46;;;;;;;25.05;8.80;;;12.50;99.90;;;;;;5054872;28;20045;-71
2022/05/14 02:01:42;;;;;;;24.20;7.95;;;12.50;99.90;;;;;;5053339;28;20119;-71
2022/05/14 02:04:12;;;;;;;21.40;8.73;;;12.50;99.90;;;;;;5052888;28;20277;-71
2022/05/14 02:06:38;;;;;;;19.38;8.52;;;12.40;99.90;;;;;;5054770;28;20451;-72
2022/05/14 02:09:08;;;;;;;23.20;9.23;;;12.40;99.90;;;;;;5053349;28;20120;-71
2022/05/14 02:11:34;;;;;;;28.02;9.40;;;12.40;99.90;;;;;;5054563;28;20364;-71
2022/05/14 02:14:00;;;;;;;17.63;8.85;;;12.30;99.90;;;;;;5053726;28;20032;-71
2022/05/14 02:16:25;;;;;;;21.65;7.72;;;12.40;99.90;;;;;;5054741;28;20071;-71
2022/05/14 02:18:51;;;;;;;27.55;9.35;;;12.40;99.90;;;;;;5054589;28;20488;-72
2022/05/14 02:21:20;;;;;;;26.25;8.38;;;12.40;99.90;;;;;;5053195;28;20037;-71
2022/05/14 02:23:46;;;;;;;27.52;9.43;;;12.30;99.90;;;;;;5054362;28;20045;-71
2022/05/14 02:26:13;;;;;;;24.75;9.55;;;12.30;99.90;;;;;;5054425;28;20509;-71
2022/05/14 02:28:39;;;;;;;20.20;8.77;;;12.30;99.90;;;;;;5053078;28;20033;-72
2022/05/14 02:31:06;;;;;;;27.92;8.93;;;12.30;99.90;;;;;;5052856;28;20045;-71
2022/05/14 02:33:32;;;;;;;20.50;8.13;;;12.30;99.90;;;;;;5054269;28;20037;-71
2022/05/14 02:35:59;;;;;;;25.52;8.77;;;12.20;99.90;;;;;;5054278;28;20035;-71
2022/05/14 02:38:26;;;;;;;32.08;9.98;;;12.20;99.90;;;;;;5052688;28;20109;-72
2022/05/14 02:40:52;;;;;;;28.05;8.48;;;12.20;99.90;;;;;;5054067;28;20068;-71
2022/05/14 02:43:17;;;;;;;26.50;9.13;;;12.20;99.90;;;;;;5052890;28;20073;-71
2022/05/14 02:45:43;;;;;;;29.20;8.93;;;12.10;99.90;;;;;;5054122;28;20041;-72
2022/05/14 02:48:12;;;;;;;23.48;8.35;;;12.10;99.90;;;;;;5051836;28;20041;-72
2022/05/14 02:50:38;;;;;;;21.45;8.65;;;12.10;99.90;;;;;;5052257;28;20048;-71
2022/05/14 02:53:04;;;;;;;23.30;9.75;;;12.10;99.90;;;;;;5053894;28;20041;-71
2022/05/14 02:55:30;;;;;;;31.10;9.38;;;12.10;99.90;;;;;;5054148;28;20083;-71
2022/05/14 02:57:56;;;;;;;21.83;8.52;;;12.00;99.90;;;;;;5052912;28;20560;-71
2022/05/14 03:00:22;;;;;;;35.72;9.63;;;12.00;99.90;;;;;;5053455;28;20041;-71
2022/05/14 03:02:48;;;;;;;17.63;7.68;;;12.00;99.90;;;;;;5052424;28;20406;-71
2022/05/14 03:05:15;;;;;;;30.50;8.85;;;12.00;99.90;;;;;;5053686;28;20037;-71
2022/05/14 03:07:41;;;;;;;26.52;8.38;;;12.00;99.90;;;;;;5053931;28;20394;-71
2022/05/14 03:10:08;;;;;;;28.05;9.10;;;12.00;99.90;;;;;;5052240;28;20045;-72
2022/05/14 03:12:34;;;;;;;27.23;8.90;;;12.00;99.90;;;;;;5052498;28;20054;-71
2022/05/14 03:15:05;;;;;;;23.95;9.15;;;12.00;99.90;;;;;;5052611;28;20029;-72
2022/05/14 03:17:34;;;;;;;26.65;9.00;;;11.90;99.90;;;;;;5052363;28;20128;-72
2022/05/14 03:20:08;;;;;;;29.20;9.43;;;11.90;99.90;;;;;;5052936;28;20095;-72
2022/05/14 03:22:38;;;;;;;30.92;10.45;;;11.90;99.90;;;;;;5052263;28;20095;-71
2022/05/14 03:25:05;;;;;;;32.92;10.32;;;11.90;99.90;;;;;;5053577;28;20083;-71
2022/05/14 03:27:31;;;;;;;24.33;8.98;;;11.80;99.90;;;;;;5053476;28;20410;-71
2022/05/14 03:29:57;;;;;;;33.88;10.05;;;11.80;99.90;;;;;;5052958;28;20047;-71
2022/05/14 03:32:24;;;;;;;27.83;9.25;;;11.80;99.90;;;;;;5051848;28;20521;-72
2022/05/14 03:34:50;;;;;;;30.10;9.77;;;11.80;99.90;;;;;;5052193;28;20417;-71
2022/05/14 03:37:16;;;;;;;24.70;9.02;;;11.80;99.90;;;;;;5052086;28;20041;-71
2022/05/14 03:39:41;;;;;;;35.13;11.13;;;11.80;99.90;;;;;;5051785;28;20063;-71
2022/05/14 03:42:07;;;;;;;26.85;9.50;;;11.70;99.90;;;;;;5051653;28;20434;-72
2022/05/14 03:44:32;;;;;;;36.38;11.27;;;11.80;99.90;;;;;;5053127;28;20490;-71
2022/05/14 03:46:58;;;;;;;26.45;11.00;;;11.70;99.90;;;;;;5052952;28;20044;-71
2022/05/14 03:49:24;;;;;;;37.72;10.82;;;11.70;99.90;;;;;;5053014;28;20049;-71
2022/05/14 03:51:49;;;;;;;30.42;10.07;;;11.70;99.90;;;;;;5052487;28;20052;-71
2022/05/14 03:54:15;;;;;;;26.63;10.05;;;11.70;99.90;;;;;;5051630;28;20048;-71
2022/05/14 03:56:41;;;;;;;30.65;10.85;;;11.70;99.90;;;;;;5050649;28;20422;-71
2022/05/14 03:59:08;;;;;;;31.00;10.25;;;11.70;99.90;;;;;;5050915;28;20035;-71
2022/05/14 04:01:35;;;;;;;29.88;11.65;;;11.70;99.90;;;;;;5050868;28;20051;-71
2022/05/14 04:04:01;;;;;;;31.77;10.00;;;11.70;99.90;;;;;;5052760;28;20480;-71
2022/05/14 04:06:27;;;;;;;34.35;11.27;;;11.70;99.90;;;;;;5051326;28;20037;-71
2022/05/14 04:08:52;;;;;;;32.40;11.23;;;11.70;99.90;;;;;;5051253;28;20103;-71
2022/05/14 04:11:18;;;;;;;31.02;11.02;;;11.70;99.90;;;;;;5051002;28;20049;-72
2022/05/14 04:13:44;;;;;;;30.80;11.32;;;11.70;99.90;;;;;;5052456;28;20045;-71
2022/05/14 04:16:09;;;;;;;37.28;11.75;;;11.70;99.90;;;;;;5051083;28;20094;-71
2022/05/14 04:18:36;;;;;;;31.33;11.02;;;11.70;99.90;;;;;;5050866;28;20113;-71
2022/05/14 04:21:02;;;;;;;36.17;12.45;;;11.70;99.90;;;;;;5050807;28;20044;-71
2022/05/14 04:23:29;;;;;;;42.72;13.55;;;11.70;99.90;;;;;;5050784;28;20041;-71
2022/05/14 04:25:56;;;;;;;37.10;13.07;;;11.80;99.90;;;;;;5050933;28;20052;-71
2022/05/14 04:28:22;;;;;;;37.88;12.38;;;11.70;99.90;;;;;;5052026;28;20102;-71
2022/05/14 04:30:48;;;;;;;36.03;13.27;;;11.80;99.90;;;;;;5050567;28;20068;-71
2022/05/14 04:33:15;;;;;;;33.45;11.52;;;11.80;99.90;;;;;;5050686;28;20060;-71
2022/05/14 04:35:41;;;;;;;32.08;12.27;;;11.80;99.90;;;;;;5051012;28;20068;-71
2022/05/14 04:38:07;;;;;;;35.30;12.05;;;11.90;99.90;;;;;;5050733;28;20075;-71
2022/05/14 04:40:33;;;;;;;31.27;11.23;;;11.90;99.90;;;;;;5051711;28;20405;-71
2022/05/14 04:42:58;;;;;;;27.90;11.30;;;11.90;99.90;;;;;;5051845;28;20045;-71
2022/05/14 04:45:24;;;;;;;36.45;13.90;;;12.00;99.90;;;;;;5050473;28;20487;-71
2022/05/14 04:47:50;;;;;;;36.33;14.00;;;12.00;99.90;;;;;;5050519;28;20453;-71
2022/05/14 04:50:16;;;;;;;39.03;13.27;;;12.10;99.90;;;;;;5051606;28;20119;-71
2022/05/14 04:52:41;;;;;;;43.00;14.80;;;12.20;99.90;;;;;;5050411;28;20036;-71
2022/05/14 04:55:08;;;;;;;35.58;13.68;;;12.30;99.90;;;;;;5051839;28;20037;-71
2022/05/14 04:57:34;;;;;;;43.67;12.73;;;12.50;99.90;;;;;;5050498;28;20116;-71
2022/05/14 05:00:00;;;;;;;47.85;13.38;;;12.60;99.90;;;;;;5033679;28;20513;-72
2022/05/14 05:05:12;;;;;;;35.00;12.70;;;12.90;99.90;;;;;;5050698;28;20230;-71
2022/05/14 05:07:38;;;;;;;29.60;11.13;;;13.10;99.90;;;;;;5051724;28;20098;-71
2022/05/14 05:10:04;;;;;;;31.50;10.95;;;13.30;99.90;;;;;;5050648;28;20490;-71
2022/05/14 05:12:29;;;;;;;31.48;11.98;;;13.40;99.90;;;;;;5050253;28;20045;-71
2022/05/14 05:14:55;;;;;;;31.40;10.55;;;13.40;99.90;;;;;;5051798;28;20040;-71
2022/05/14 05:17:21;;;;;;;31.38;11.00;;;13.40;99.90;;;;;;5050208;28;20384;-71
2022/05/14 05:19:46;;;;;;;25.83;11.57;;;13.50;99.90;;;;;;5050146;28;20036;-71
2022/05/14 05:22:12;;;;;;;32.47;10.52;;;13.50;99.90;;;;;;5051155;28;20045;-71
2022/05/14 05:24:38;;;;;;;24.67;10.55;;;13.40;99.90;;;;;;5051176;28;20037;-71
2022/05/14 05:27:04;;;;;;;30.73;10.73;;;13.40;99.90;;;;;;5050206;28;20588;-71
2022/05/14 05:29:30;;;;;;;27.55;11.25;;;13.30;99.90;;;;;;5051594;28;20044;-71
2022/05/14 05:31:55;;;;;;;35.50;12.40;;;13.30;99.90;;;;;;5049929;28;20490;-71
2022/05/14 05:34:21;;;;;;;25.85;10.85;;;13.20;99.90;;;;;;5050013;28;20037;-71
2022/05/14 05:36:46;;;;;;;45.35;11.63;;;13.30;99.90;;;;;;5051493;28;20037;-72
2022/05/14 05:39:12;;;;;;;28.58;10.63;;;13.30;99.90;;;;;;5051388;28;20110;-72
2022/05/14 05:41:38;;;;;;;25.40;10.23;;;13.40;99.90;;;;;;5050930;28;20118;-71
2022/05/14 05:44:03;;;;;;;27.30;10.35;;;13.80;99.90;;;;;;5051297;28;20076;-71
2022/05/14 05:46:32;;;;;;;32.80;11.07;;;14.20;99.90;;;;;;5050021;28;20037;-71
2022/05/14 05:48:58;;;;;;;34.17;10.15;;;14.60;99.90;;;;;;5049875;28;20076;-71
2022/05/14 05:51:23;;;;;;;27.27;9.00;;;15.00;99.90;;;;;;5051060;28;20471;-71
2022/05/14 05:59:18;;;;;;;24.00;9.73;;;16.00;99.90;;;;;;5051355;28;20044;-71
2022/05/14 06:01:44;;;;;;;29.52;10.07;;;16.10;99.90;;;;;;5049734;28;20041;-71
2022/05/14 06:04:10;;;;;;;30.83;8.80;;;16.50;99.90;;;;;;5050960;28;20037;-72
2022/05/14 06:06:41;;;;;;;23.33;8.50;;;16.60;99.90;;;;;;5050103;28;20041;-72
2022/05/14 06:09:06;;;;;;;24.45;8.65;;;16.50;99.90;;;;;;5050859;28;20041;-71
2022/05/14 06:11:32;;;;;;;26.25;9.13;;;16.40;99.90;;;;;;5050867;28;20063;-71
2022/05/14 06:13:58;;;;;;;23.52;8.93;;;16.20;99.90;;;;;;5049582;28;20379;-71
2022/05/14 06:16:24;;;;;;;29.65;8.75;;;16.00;99.90;;;;;;5051025;28;20049;-71
2022/05/14 06:18:50;;;;;;;29.88;9.57;;;15.80;99.90;;;;;;5050922;28;20040;-71
2022/05/14 06:21:15;;;;;;;29.88;10.55;;;15.60;99.90;;;;;;5049403;28;20048;-71
2022/05/14 06:23:41;;;;;;;26.88;8.75;;;15.50;99.90;;;;;;5053347;28;20053;-71
2022/05/14 06:26:06;;;;;;;25.92;8.85;;;15.30;99.90;;;;;;5054625;28;20116;-71
2022/05/14 06:28:32;;;;;;;29.63;8.43;;;15.20;99.90;;;;;;5053241;28;20467;-71
2022/05/14 06:30:58;;;;;;;30.58;8.77;;;15.50;99.90;;;;;;5054229;28;20518;-71
2022/05/14 06:33:26;;;;;;;26.52;9.35;;;15.90;99.90;;;;;;5053223;28;20052;-71
2022/05/14 06:35:52;;;;;;;24.67;7.07;;;16.30;99.90;;;;;;5054314;28;20388;-71
2022/05/14 06:38:18;;;;;;;21.83;7.13;;;16.70;99.90;;;;;;5036663;28;20401;-71
2022/05/14 06:40:43;;;;;;;24.05;5.93;;;17.10;99.90;;;;;;5053909;28;20036;-71
2022/05/14 06:43:09;;;;;;;25.38;7.50;;;17.20;99.90;;;;;;5054359;28;20041;-71
2022/05/14 06:45:35;;;;;;;26.25;5.65;;;17.40;99.90;;;;;;5052904;28;20091;-71
2022/05/14 06:48:01;;;;;;;19.50;5.53;;;17.50;99.90;;;;;;5054219;28;20045;-71
2022/05/14 06:50:29;;;;;;;21.83;6.20;;;17.50;99.60;;;;;;5053380;28;20406;-72
2022/05/14 06:52:59;;;;;;;18.48;5.40;;;17.60;98.40;;;;;;5052565;28;20503;-71
2022/05/14 06:55:27;;;;;;;20.50;5.82;;;17.70;97.50;;;;;;5054007;28;20037;-71
2022/05/14 06:57:54;;;;;;;23.85;5.97;;;17.90;98.10;;;;;;5053212;28;20082;-71
2022/05/14 07:00:20;;;;;;;20.35;4.78;;;17.90;95.80;;;;;;5053396;28;20045;-72
2022/05/14 07:02:47;;;;;;;22.88;5.82;;;18.00;95.60;;;;;;5052576;28;20087;-72
2022/05/14 07:07:58;;;;;;;18.40;5.13;;;18.40;94.20;;;;;;5053840;28;20041;-71
2022/05/14 07:10:24;;;;;;;20.15;6.05;;;18.60;94.80;;;;;;5053084;28;20037;-71
2022/05/14 07:12:49;;;;;;;16.33;5.25;;;18.60;94.50;;;;;;5052319;28;20513;-72
2022/05/14 07:15:15;;;;;;;20.52;5.05;;;18.80;93.70;;;;;;5053296;28;20045;-71
2022/05/14 07:17:41;;;;;;;17.75;4.40;;;18.80;88.40;;;;;;5035514;28;20037;-71
2022/05/14 07:20:07;;;;;;;21.50;5.78;;;19.00;87.60;;;;;;5053209;28;20033;-71
2022/05/14 07:22:33;;;;;;;18.13;4.43;;;18.70;86.20;;;;;;5052187;28;20041;-71
2022/05/14 07:24:59;;;;;;;11.95;4.22;;;18.90;86.90;;;;;;5053360;28;20037;-71
2022/05/14 07:27:26;;;;;;;15.13;5.30;;;18.90;85.80;;;;;;5052273;28;20131;-71
2022/05/14 07:29:51;;;;;;;19.70;4.88;;;19.00;84.60;;;;;;5051712;28;20037;-71
2022/05/14 07:32:19;;;;;;;12.98;4.97;;;19.10;82.50;;;;;;5053012;28;20037;-71
2022/05/14 07:34:46;;;;;;;21.35;5.07;;;19.30;83.20;;;;;;5051992;28;20040;-71
2022/05/14 07:37:43;;;;;;;16.40;4.82;;;19.60;80.90;;;;;;5052870;28;20041;-71
2022/05/14 07:40:15;;;;;;;14.70;4.28;;;19.40;76.10;;;;;;5049064;28;20056;-71
2022/05/14 07:42:52;;;;;;;18.23;4.60;;;19.40;76.40;;;;;;5051986;28;20041;-72
2022/05/14 07:45:33;;;;;;;17.63;3.83;;;19.30;74.10;;;;;;5053091;28;20494;-73
2022/05/14 07:48:02;;;;;;;13.63;5.53;;;19.40;74.00;;;;;;5053661;28;20385;-72
2022/05/14 07:50:28;;;;;;;14.77;4.90;;;19.40;76.40;;;;;;5051631;28;20060;-73
2022/05/14 07:52:53;;;;;;;21.60;5.53;;;19.30;76.80;;;;;;5052493;28;20530;-72
2022/05/14 07:55:19;;;;;;;14.40;4.65;;;19.30;76.70;;;;;;5051994;28;20116;-72
2022/05/14 07:57:45;;;;;;;15.90;4.68;;;19.50;75.10;;;;;;5053086;28;20052;-72
2022/05/14 08:00:11;;;;;;;19.25;4.47;;;19.40;74.40;;;;;;5051397;28;20064;-71
2022/05/14 08:02:39;;;;;;;17.65;5.18;;;19.40;74.20;;;;;;5050830;28;20194;-71
2022/05/14 08:05:08;;;;;;;15.00;4.70;;;19.70;73.90;;;;;;5051953;28;20495;-71
2022/05/14 08:07:34;;;;;;;17.20;4.78;;;19.70;74.70;;;;;;5051246;28;20564;-71
2022/05/14 08:10:00;;;;;;;16.23;4.80;;;19.80;74.30;;;;;;5052102;28;20589;-71
2022/05/14 08:12:32;;;;;;;14.85;4.65;;;20.10;73.60;;;;;;5052645;28;20041;-71
2022/05/14 08:14:57;;;;;;;15.70;4.25;;;20.30;72.00;;;;;;5052604;28;20040;-71
2022/05/14 08:17:23;;;;;;;16.88;4.85;;;20.20;70.60;;;;;;5052543;28;20033;-71
2022/05/14 08:19:48;;;;;;;17.33;4.90;;;20.40;70.20;;;;;;5052221;28;20041;-71
2022/05/14 08:24:58;;;;;;;13.75;4.38;;;20.30;68.10;;;;;;5052397;28;20494;-71
2022/05/14 08:27:23;;;;;;;17.05;5.22;;;20.60;68.00;;;;;;5052225;28;20041;-71
2022/05/14 08:29:49;;;;;;;14.43;4.15;;;20.50;67.30;;;;;;5051988;28;20048;-71
2022/05/14 08:32:18;;;;;;;18.65;4.20;;;20.50;66.40;;;;;;5051762;28;20047;-70
2022/05/14 08:34:45;;;;;;;13.52;4.28;;;20.10;65.30;;;;;;5050757;28;20041;-71
2022/05/14 08:37:11;;;;;;;16.83;4.15;;;20.70;67.00;;;;;;5052165;28;20710;-71
2022/05/14 08:39:37;;;;;;;16.35;5.28;;;21.00;65.70;;;;;;5052068;28;20036;-71
2022/05/14 08:42:06;;;;;;;19.60;5.30;;;21.10;65.50;;;;;;5050693;28;20048;-71
2022/05/14 08:44:33;;;;;;;17.85;5.03;;;20.90;62.90;;;;;;5050161;28;20513;-71
2022/05/14 08:47:03;;;;;;;22.40;5.85;;;21.10;64.20;;;;;;5051735;28;20487;-71
2022/05/14 08:49:34;;;;;;;22.90;5.25;;;21.20;65.10;;;;;;5052025;28;20045;-71
2022/05/14 08:52:00;;;;;;;19.42;4.72;;;21.20;63.50;;;;;;5051630;28;20041;-71
2022/05/14 08:54:26;;;;;;;23.58;6.28;;;20.60;64.10;;;;;;5051420;28;20448;-71
2022/05/14 08:57:11;;;;;;;15.95;4.35;;;21.20;65.30;;;;;;5049774;28;20033;-71
2022/05/14 08:59:51;;;;;;;17.70;5.20;;;21.30;63.30;;;;;;5050365;28;20090;-71
2022/05/14 09:02:24;;;;;;;18.95;5.15;;;21.10;62.50;;;;;;5049904;28;20049;-71
2022/05/14 09:04:56;;;;;;;18.83;5.05;;;20.80;61.90;;;;;;5050230;28;20040;-72
2022/05/14 09:07:22;;;;;;;17.47;4.83;;;20.80;63.20;;;;;;5050157;28;20212;-71
2022/05/14 09:09:52;;;;;;;19.65;4.43;;;20.50;63.70;;;;;;5047775;28;20522;-71
2022/05/14 09:12:42;;;;;;;16.65;4.75;;;20.80;65.20;;;;;;5049927;28;20044;-71
2022/05/14 09:15:14;;;;;;;16.58;4.50;;;20.90;64.80;;;;;;5051409;28;20037;-71
2022/05/14 09:17:40;;;;;;;15.43;4.13;;;21.00;62.40;;;;;;5050378;28;20159;-71
2022/05/14 09:20:07;;;;;;;15.90;4.80;;;20.80;64.00;;;;;;5049434;28;20123;-72
2022/05/14 09:22:47;;;;;;;20.20;5.50;;;20.40;63.80;;;;;;5050646;28;20124;-72
2022/05/14 09:25:19;;;;;;;20.30;5.80;;;20.60;63.90;;;;;;5050184;28;20056;-71
2022/05/14 09:27:45;;;;;;;15.45;4.68;;;20.80;64.80;;;;;;5049996;28;20048;-71
2022/05/14 09:30:22;;;;;;;16.98;4.75;;;20.90;63.60;;;;;;5049214;28;20045;-72
2022/05/14 09:32:49;;;;;;;16.50;4.95;;;21.00;63.40;;;;;;5049504;28;20041;-72
2022/05/14 09:35:27;;;;;;;21.42;4.78;;;21.10;62.80;;;;;;5049828;28;20041;-71
2022/05/14 09:38:17;;;;;;;20.35;5.50;;;20.90;62.10;;;;;;5051581;28;20051;-72
2022/05/14 09:40:42;;;;;;;21.00;5.80;;;20.80;60.80;;;;;;5050038;28;20430;-72
2022/05/14 09:43:17;;;;;;;16.67;4.78;;;20.50;63.00;;;;;;5050262;28;20043;-72
2022/05/14 09:46:02;;;;;;;20.67;4.97;;;20.10;63.00;;;;;;5050738;28;20605;-71
2022/05/14 09:48:47;;;;;;;19.02;5.40;;;20.30;63.40;;;;;;5050344;28;20037;-72
2022/05/14 09:51:26;;;;;;;19.27;4.93;;;20.30;62.60;;;;;;5039811;28;20426;-71
2022/05/14 09:53:52;;;;;;;16.00;4.63;;;20.60;64.00;;;;;;5050715;28;20037;-72
2022/05/14 09:56:39;;;;;;;14.35;4.55;;;20.60;63.30;;;;;;5050096;28;20479;-72
2022/05/14 09:59:31;;;;;;;17.52;4.20;;;20.60;62.60;;;;;;5050142;28;20514;-71
2022/05/14 10:02:23;;;;;;;20.00;4.97;;;20.30;63.40;;;;;;5051848;28;20059;-71
2022/05/14 10:05:19;;;;;;;15.88;4.25;;;20.10;63.90;;;;;;5053472;28;20041;-72
2022/05/14 10:07:56;;;;;;;18.75;4.65;;;20.30;65.70;;;;;;5054333;28;20036;-71
2022/05/14 10:11:14;;;;;;;15.30;4.47;;;20.30;63.10;;;;;;5053461;28;20398;-72
2022/05/14 10:13:49;;;;;;;16.80;4.70;;;20.20;62.80;;;;;;4973337;28;20078;-72
2022/05/14 10:16:25;;;;;;;14.70;4.90;;;20.40;65.30;;;;;;5031212;28;20041;-71
2022/05/14 10:19:23;;;;;;;23.35;5.57;;;20.40;65.10;;;;;;5052729;28;20103;-72
2022/05/14 10:22:16;;;;;;;17.85;4.18;;;20.30;62.20;;;;;;5053043;28;20041;-72
2022/05/14 10:28:18;;;;;;;15.90;3.97;;;20.60;62.50;;;;;;5053177;28;20049;-72
2022/05/14 10:30:47;;;;;;;21.73;4.45;;;20.70;61.40;;;;;;5036233;28;20411;-72
2022/05/14 10:33:18;;;;;;;19.70;4.22;;;20.90;61.50;;;;;;5054268;28;20406;-72
2022/05/14 10:35:57;;;;;;;19.20;4.60;;;21.00;59.50;;;;;;5054191;28;20079;-71
2022/05/14 10:38:45;;;;;;;19.05;5.00;;;21.00;60.90;;;;;;5052064;28;20107;-71
2022/05/14 10:41:14;;;;;;;16.50;4.65;;;20.90;61.50;;;;;;5051360;28;20131;-71
2022/05/14 10:43:58;;;;;;;16.88;4.72;;;20.80;61.70;;;;;;5052720;28;20072;-71
2022/05/14 10:46:34;;;;;;;19.40;5.15;;;20.60;61.20;;;;;;5033011;28;20109;-71
2022/05/14 10:49:06;;;;;;;17.50;5.65;;;20.50;62.10;;;;;;5054085;28;20124;-71
2022/05/14 10:51:37;;;;;;;17.53;5.10;;;20.20;61.60;;;;;;5053850;28;20041;-71
2022/05/14 10:54:03;;;;;;;14.82;4.18;;;20.40;63.70;;;;;;5052608;28;20041;-71
2022/05/14 10:56:33;;;;;;;16.52;5.10;;;20.30;63.40;;;;;;5053258;28;20104;-71
2022/05/14 10:59:08;;;;;;;18.67;5.03;;;20.40;63.90;;;;;;5053729;28;20096;-71
2022/05/14 11:01:51;;;;;;;15.45;5.22;;;20.50;62.30;;;;;;5051932;28;20052;-71
2022/05/14 11:04:24;;;;;;;14.68;4.35;;;20.50;61.30;;;;;;5048377;28;20032;-71
2022/05/14 11:07:04;;;;;;;15.57;5.28;;;20.70;62.50;;;;;;5049493;28;20037;-71
2022/05/14 11:09:35;;;;;;;14.68;4.53;;;20.80;60.20;;;;;;5049563;28;20060;-71
2022/05/14 11:12:11;;;;;;;20.38;5.03;;;21.00;62.20;;;;;;5052696;28;20037;-72
2022/05/14 11:14:44;;;;;;;21.27;5.85;;;21.10;60.00;;;;;;5052042;28;20071;-71
2022/05/14 11:17:19;;;;;;;18.80;5.63;;;21.00;59.20;;;;;;5050843;28;20029;-71
2022/05/14 11:19:45;;;;;;;25.52;4.95;;;20.80;57.60;;;;;;5053605;28;20045;-72
2022/05/14 11:22:27;;;;;;;17.45;4.88;;;20.90;58.60;;;;;;5051918;28;20151;-71
2022/05/14 11:24:54;;;;;;;22.52;4.43;;;20.80;58.30;;;;;;5053440;28;20056;-72
2022/05/14 11:27:29;;;;;;;17.95;4.63;;;20.90;57.80;;;;;;5053236;28;20063;-71
2022/05/14 11:29:59;;;;;;;18.23;4.85;;;20.70;58.60;;;;;;5053007;28;20040;-71
2022/05/14 11:32:25;;;;;;;16.45;5.22;;;20.60;58.50;;;;;;5051956;28;20594;-71
2022/05/14 11:34:59;;;;;;;16.23;4.75;;;20.50;58.20;;;;;;5051252;28;20078;-71
2022/05/14 11:37:37;;;;;;;20.30;4.97;;;20.60;58.70;;;;;;5032314;28;20082;-71
2022/05/14 11:40:20;;;;;;;17.13;5.25;;;20.60;57.90;;;;;;5052102;28;20048;-72
2022/05/14 11:43:09;;;;;;;16.92;5.32;;;20.60;58.10;;;;;;5051803;28;20045;-72
2022/05/14 11:45:38;;;;;;;13.65;4.32;;;20.60;61.20;;;;;;5035128;28;20045;-72
2022/05/14 11:48:07;;;;;;;20.60;5.53;;;20.90;60.20;;;;;;5052863;28;20048;-73
2022/05/14 11:50:55;;;;;;;14.48;4.32;;;20.60;59.00;;;;;;5051337;28;20086;-72
2022/05/14 11:53:43;;;;;;;15.75;5.00;;;20.30;58.10;;;;;;5052443;28;20483;-73
2022/05/14 11:56:18;;;;;;;16.05;4.97;;;20.30;61.90;;;;;;5031605;28;20052;-73
2022/05/14 11:58:51;;;;;;;23.38;5.53;;;20.30;59.40;;;;;;5014894;28;20125;-73
2022/05/14 12:01:21;;;;;;;23.65;5.15;;;20.30;59.10;;;;;;5032777;28;20041;-73
2022/05/14 12:03:48;;;;;;;15.57;4.90;;;20.50;59.30;;;;;;5032976;28;20064;-73
2022/05/14 12:06:39;;;;;;;20.05;5.93;;;20.50;59.50;;;;;;5032724;28;20530;-73
2022/05/14 12:09:31;;;;;;;19.20;5.28;;;20.60;57.70;;;;;;5031429;28;20049;-73
2022/05/14 12:12:10;;;;;;;15.05;4.78;;;20.60;57.30;;;;;;5016261;28;20487;-72
2022/05/14 12:14:36;;;;;;;16.20;4.80;;;20.60;56.30;;;;;;5031711;28;20145;-72
2022/05/14 12:17:07;;;;;;;19.65;5.15;;;20.50;56.50;;;;;;5032556;28;20046;-72
2022/05/14 12:19:35;;;;;;;21.00;5.47;;;20.50;56.40;;;;;;5031451;28;20048;-73
2022/05/14 12:22:16;;;;;;;14.00;4.65;;;20.20;57.30;;;;;;5014432;28;20042;-72
2022/05/14 12:25:03;;;;;;;17.42;5.00;;;20.40;58.60;;;;;;5032452;28;20080;-72
2022/05/14 12:27:31;;;;;;;20.10;4.60;;;20.40;58.90;;;;;;5031102;28;20507;-72
2022/05/14 12:30:00;;;;;;;18.48;4.68;;;20.40;59.20;;;;;;5030570;28;20076;-72
2022/05/14 12:35:22;;;;;;;22.27;5.68;;;20.30;58.70;;;;;;5052322;28;20490;-72
2022/05/14 12:37:52;;;;;;;18.15;5.28;;;20.20;57.70;;;;;;5050808;28;20137;-72
2022/05/14 12:40:30;;;;;;;18.63;5.22;;;20.20;58.30;;;;;;5050397;28;20041;-72
2022/05/14 12:42:57;;;;;;;23.55;5.68;;;20.30;58.90;;;;;;5050769;28;20044;-72
2022/05/14 12:45:43;;;;;;;16.60;4.65;;;20.30;59.50;;;;;;5052345;28;20041;-72
2022/05/14 12:48:11;;;;;;;16.92;4.38;;;20.40;58.80;;;;;;5051819;28;20076;-72
2022/05/14 12:50:40;;;;;;;15.60;4.30;;;20.60;56.70;;;;;;5049558;28;20059;-72
2022/05/14 12:53:11;;;;;;;27.42;5.57;;;20.90;58.00;;;;;;5051399;28;20440;-73
2022/05/14 12:55:41;;;;;;;19.95;5.47;;;20.70;56.30;;;;;;5049586;28;20041;-72
2022/05/14 12:58:07;;;;;;;23.00;6.97;;;20.70;57.40;;;;;;5050899;28;20383;-72
2022/05/14 13:00:35;;;;;;;14.25;4.93;;;20.50;57.80;;;;;;5051880;28;20575;-72
2022/05/14 13:03:11;;;;;;;16.80;4.47;;;20.30;58.80;;;;;;5051841;28;20087;-72
2022/05/14 13:05:40;;;;;;;17.77;5.10;;;20.10;59.90;;;;;;5050810;28;20123;-72
2022/05/14 13:08:13;;;;;;;16.63;4.35;;;20.00;58.70;;;;;;5051732;28;20056;-72
2022/05/14 13:10:44;;;;;;;17.45;4.82;;;20.00;59.60;;;;;;5051612;28;20044;-72
2022/05/14 13:13:10;;;;;;;22.40;5.07;;;20.00;59.60;;;;;;5051668;28;20120;-72
2022/05/14 13:15:38;;;;;;;15.38;4.85;;;20.00;58.20;;;;;;5051704;28;20578;-71